Time;durP1;ratioP1;P1;durP2;ratioP2;P2;SDS_P1;SDS_P2;PMS_P1;PMS_P2;Temp;Humidity;BMP_temperature;BMP_pressure;BME280_temperature;BME280_humidity;BME280_pressure;Samples;Min_cycle;Max_cycle;Signal;HPM_P1;HPM_P2
2022/06/14 00:02:09;;;;;;;;;12.75;12.75;;;;;24.14;51.08;100634.44;146620;573;46020;-74
2022/06/14 00:05:03;;;;;;;;;12.00;11.00;;;;;24.03;51.58;100630.09;146619;617;46012;-74
2022/06/14 00:08:01;;;;;;;;;12.75;11.50;;;;;23.91;50.74;100629.25;146619;604;46020;-79
2022/06/14 00:10:57;;;;;;;;;16.50;12.75;;;;;23.86;51.01;100636.34;146615;680;46016;-73
2022/06/14 00:13:53;;;;;;;;;11.75;10.75;;;;;23.82;52.14;100628.41;146620;578;46023;-74
2022/06/14 00:16:45;;;;;;;;;12.25;11.00;;;;;23.77;51.65;100633.75;146618;632;46032;-75
2022/06/14 00:19:41;;;;;;;;;15.25;13.25;;;;;23.76;51.33;100645.19;146619;652;46020;-73
2022/06/14 00:22:36;;;;;;;;;12.75;11.25;;;;;23.79;51.53;100647.84;146617;613;46012;-74
2022/06/14 00:25:43;;;;;;;;;11.25;9.25;;;;;23.84;51.02;100639.91;146618;667;46020;-74
2022/06/14 00:28:37;;;;;;;;;13.00;10.25;;;;;23.78;52.16;100635.50;146618;658;46031;-74
2022/06/14 00:31:31;;;;;;;;;10.25;9.50;;;;;23.73;52.70;100639.91;146618;574;47010;-72
2022/06/14 00:34:25;;;;;;;;;12.50;12.50;;;;;23.62;52.44;100641.72;146619;590;46012;-73
2022/06/14 00:37:22;;;;;;;;;11.50;10.00;;;;;23.51;53.49;100644.37;146617;576;46020;-72
2022/06/14 00:40:18;;;;;;;;;12.75;11.00;;;;;23.47;53.03;100650.56;146615;579;45040;-75
2022/06/14 00:43:21;;;;;;;;;12.75;10.25;;;;;23.38;52.97;100648.81;146617;603;46021;-74
2022/06/14 00:46:27;;;;;;;;;9.75;9.75;;;;;23.32;52.21;100645.31;146616;611;46016;-76
2022/06/14 00:49:31;;;;;;;;;10.50;10.50;;;;;23.32;51.87;100643.56;146622;570;45021;-69
2022/06/14 00:52:39;;;;;;;;;10.00;9.25;;;;;23.40;51.47;100643.56;146613;611;46012;-72
2022/06/14 00:55:56;;;;;;;;;11.25;11.25;;;;;23.48;51.46;100644.37;146623;578;45020;-72
2022/06/14 00:58:54;;;;;;;;;11.25;10.25;;;;;23.48;52.57;100655.84;146616;594;46014;-76
2022/06/14 01:01:51;;;;;;;;;11.75;11.25;;;;;23.52;52.37;100656.75;146619;613;46020;-76
2022/06/14 01:04:46;;;;;;;;;9.75;9.75;;;;;23.56;52.13;100650.56;146633;567;45013;-78
2022/06/14 01:07:55;;;;;;;;;10.25;10.25;;;;;23.61;51.65;100650.53;146636;609;45010;-75
2022/06/14 01:10:48;;;;;;;;;11.00;11.00;;;;;23.64;51.81;100646.09;146635;698;46012;-78
2022/06/14 01:13:42;;;;;;;;;11.50;11.50;;;;;23.70;52.23;100645.22;146633;630;45021;-78
2022/06/14 01:16:36;;;;;;;;;9.75;9.25;;;;;23.75;52.04;100640.81;146635;672;45016;-78
2022/06/14 01:19:30;;;;;;;;;11.00;10.50;;;;;23.75;51.28;100646.09;146635;565;45011;-75
2022/06/14 01:22:26;;;;;;;;;7.75;7.75;;;;;23.76;51.73;100644.31;146627;570;47916;-74
2022/06/14 01:25:19;;;;;;;;;10.00;9.00;;;;;23.76;51.68;100649.63;146639;588;45010;-73
2022/06/14 01:28:12;;;;;;;;;14.00;13.25;;;;;23.78;52.37;100647.88;146634;570;45016;-78
2022/06/14 01:31:06;;;;;;;;;12.50;10.50;;;;;23.77;51.79;100641.69;146632;581;45029;-80
2022/06/14 01:34:04;;;;;;;;;8.00;8.00;;;;;23.80;52.14;100640.78;146633;672;45024;-79
2022/06/14 01:37:02;;;;;;;;;9.75;8.75;;;;;23.76;53.64;100639.91;146637;656;45014;-74
2022/06/14 01:39:55;;;;;;;;;13.00;13.00;;;;;23.60;54.34;100647.00;146636;574;45014;-80
2022/06/14 01:43:16;;;;;;;;;10.50;9.75;;;;;23.46;52.81;100641.75;146630;585;45916;-79
2022/06/14 01:46:30;;;;;;;;;13.75;12.75;;;;;23.36;54.43;100640.00;146635;639;45018;-79
2022/06/14 01:53:23;;;;;;;;;10.50;10.25;;;;;23.18;55.24;100645.34;146632;671;45016;-84
2022/06/14 01:56:52;;;;;;;;;9.75;9.75;;;;;23.10;56.71;100649.78;146639;711;44916;-79
2022/06/14 02:00:08;;;;;;;;;12.25;12.25;;;;;23.02;56.58;100653.31;146634;606;45012;-78
2022/06/14 02:07:24;;;;;;;;;12.00;10.75;;;;;22.97;58.12;100654.19;146617;643;46016;-79
2022/06/14 02:10:44;;;;;;;;;13.50;11.75;;;;;22.90;55.88;100653.28;146613;564;47010;-80
2022/06/14 02:14:23;;;;;;;;;12.00;11.75;;;;;22.85;56.26;100652.41;146616;597;46016;-80
2022/06/14 02:17:22;;;;;;;;;14.25;12.75;;;;;22.89;57.78;100656.78;146622;571;46010;-79
2022/06/14 02:20:25;;;;;;;;;13.25;12.25;;;;;22.92;58.20;100663.84;146618;682;46014;-79
2022/06/14 02:23:18;;;;;;;;;12.50;12.50;;;;;22.93;58.77;100671.78;146621;575;46020;-73
2022/06/14 02:26:17;;;;;;;;;14.25;11.50;;;;;22.94;61.16;100683.28;146617;614;46013;-73
2022/06/14 02:29:35;;;;;;;;;12.25;11.50;;;;;22.92;57.33;100680.59;146621;570;46020;-73
2022/06/14 02:32:55;;;;;;;;;10.75;10.75;;;;;22.91;57.27;100673.53;146617;592;46016;-76
2022/06/14 02:35:57;;;;;;;;;12.50;12.00;;;;;22.68;59.63;100635.62;146623;578;46010;-76
2022/06/14 02:39:00;;;;;;;;;12.00;11.25;;;;;22.94;59.42;100688.56;146617;578;46025;-76
2022/06/14 02:42:22;;;;;;;;;11.25;10.00;;;;;22.89;57.40;100685.00;146624;603;45021;-74
2022/06/14 02:45:29;;;;;;;;;11.25;11.25;;;;;22.86;58.75;100692.94;146618;668;46016;-75
2022/06/14 02:48:35;;;;;;;;;13.25;11.00;;;;;22.79;59.87;100700.84;146622;573;46011;-73
2022/06/14 02:51:48;;;;;;;;;14.00;13.00;;;;;22.75;57.58;100700.88;146614;583;46012;-73
2022/06/14 02:55:30;;;;;;;;;11.25;10.75;;;;;22.75;56.50;100696.44;146620;589;46020;-76
2022/06/14 02:58:56;;;;;;;;;13.00;12.00;;;;;22.80;58.05;100693.78;146617;634;46016;-78
2022/06/14 03:02:00;;;;;;;;;10.75;10.00;;;;;22.79;57.72;100684.13;146620;598;46020;-78
2022/06/14 03:05:18;;;;;;;;;12.00;11.25;;;;;22.79;57.03;100686.75;146632;570;45017;-78
2022/06/14 03:08:25;;;;;;;;;12.75;11.50;;;;;22.81;56.43;100691.16;146635;649;45020;-79
2022/06/14 03:11:58;;;;;;;;;13.00;11.00;;;;;22.26;57.13;100603.91;146633;581;45016;-79
2022/06/14 03:15:20;;;;;;;;;15.00;14.00;;;;;22.81;56.96;100700.88;146634;641;45031;-82
2022/06/14 03:18:39;;;;;;;;;13.00;12.25;;;;;22.76;56.85;100697.31;146630;571;45915;-72
2022/06/14 03:21:46;;;;;;;;;13.25;12.25;;;;;22.71;56.72;100702.63;146635;575;45010;-75
2022/06/14 03:25:15;;;;;;;;;13.00;11.50;;;;;22.65;55.38;100707.91;146632;584;45016;-71
2022/06/14 03:28:17;;;;;;;;;14.50;13.25;;;;;22.72;56.86;100714.94;146635;569;45020;-77
2022/06/14 03:31:25;;;;;;;;;13.00;12.00;;;;;22.80;56.57;100715.84;146634;616;45016;-79
2022/06/14 03:34:50;;;;;;;;;12.00;12.00;;;;;22.22;55.95;100614.47;146637;642;45010;-76
2022/06/14 03:37:42;;;;;;;;;13.75;13.25;;;;;22.93;58.09;100726.41;146635;635;44913;-77
2022/06/14 03:40:35;;;;;;;;;14.50;12.50;;;;;22.98;58.20;100727.34;146637;572;45010;-77
2022/06/14 03:43:28;;;;;;;;;11.75;11.50;;;;;23.03;58.15;100729.13;146634;624;45012;-77
2022/06/14 03:46:44;;;;;;;;;11.00;11.00;;;;;23.09;56.11;100724.72;146635;594;45010;-79
2022/06/14 03:49:39;;;;;;;;;16.25;13.00;;;;;23.12;59.28;100730.00;146630;632;46012;-75
2022/06/14 03:53:19;;;;;;;;;14.75;12.75;;;;;22.33;56.79;100591.59;146634;640;45010;-79
2022/06/14 03:56:37;;;;;;;;;13.00;12.75;;;;;23.11;56.20;100736.16;146633;662;45016;-81
2022/06/14 04:00:10;;;;;;;;;12.75;12.50;;;;;23.10;55.79;100731.75;146636;575;45020;-80
2022/06/14 04:03:28;;;;;;;;;13.25;12.25;;;;;23.13;56.59;100737.06;146624;652;46012;-81
2022/06/14 04:07:03;;;;;;;;;13.25;12.75;;;;;23.15;58.02;100736.16;146617;569;46020;-76
2022/06/14 04:10:34;;;;;;;;;11.75;11.75;;;;;23.26;57.61;100736.16;146617;571;45915;-78
2022/06/14 04:14:09;;;;;;;;;13.00;11.75;;;;;23.42;57.91;100742.31;146620;671;46010;-76
2022/06/14 04:17:47;;;;;;;;;14.00;12.75;;;;;23.60;56.41;100738.75;146619;703;46013;-76
2022/06/14 04:20:47;;;;;;;;;12.75;10.50;;;;;23.84;57.14;100729.91;146619;637;46010;-75
2022/06/14 04:24:15;;;;;;;;;10.00;10.00;;;;;24.10;55.64;100743.06;146618;627;46015;-75
2022/06/14 04:27:59;;;;;;;;;13.00;10.50;;;;;23.81;54.69;100640.78;146618;572;46020;-75
2022/06/14 04:31:07;;;;;;;;;12.25;10.00;;;;;24.62;55.67;100745.50;146617;646;46915;-75
2022/06/14 04:34:29;;;;;;;;;10.00;10.00;;;;;24.80;54.73;100750.69;146617;621;46020;-74
2022/06/14 04:37:46;;;;;;;;;11.00;11.00;;;;;24.95;54.56;100752.31;146615;573;46016;-74
2022/06/14 04:40:51;;;;;;;;;9.25;8.50;;;;;25.01;55.41;100743.44;146622;588;46010;-75
2022/06/14 04:43:52;;;;;;;;;11.50;10.50;;;;;25.03;55.53;100745.19;146618;668;46016;-82
2022/06/14 04:47:00;;;;;;;;;11.00;10.25;;;;;25.05;55.56;100746.06;146621;598;46015;-82
2022/06/14 04:50:17;;;;;;;;;17.50;13.00;;;;;25.05;56.02;100742.53;146619;604;45030;-77
2022/06/14 04:53:35;;;;;;;;;12.50;12.00;;;;;25.06;55.15;100744.28;146621;608;46010;-75
2022/06/14 04:56:43;;;;;;;;;11.00;10.75;;;;;25.07;56.39;100746.03;146618;709;46012;-73
2022/06/14 05:00:13;;;;;;;;;13.50;12.00;;;;;24.30;57.04;100626.38;146621;564;46014;-74
2022/06/14 05:03:23;;;;;;;;;13.50;11.00;;;;;24.95;55.94;100757.62;146615;576;46012;-74
2022/06/14 05:06:29;;;;;;;;;14.50;11.75;;;;;24.88;56.17;100742.66;146622;597;46010;-75
2022/06/14 05:09:57;;;;;;;;;11.00;10.75;;;;;25.02;55.32;100756.72;146616;583;46033;-76
2022/06/14 05:13:09;;;;;;;;;11.50;11.00;;;;;25.33;55.55;100756.50;146618;662;47010;-75
2022/06/14 05:16:35;;;;;;;;;11.75;10.00;;;;;25.61;55.14;100762.41;146616;671;46016;-75
2022/06/14 05:19:58;;;;;;;;;11.75;10.50;;;;;25.78;54.79;100765.75;146619;685;46010;-82
2022/06/14 05:23:21;;;;;;;;;12.50;11.50;;;;;25.82;54.27;100765.75;146617;671;45037;-75
2022/06/14 05:27:00;;;;;;;;;10.50;9.50;;;;;25.50;53.87;100701.44;146618;575;46021;-74
2022/06/14 05:30:35;;;;;;;;;13.75;12.75;;;;;26.14;53.39;100770.72;146620;577;46012;-74
2022/06/14 05:34:04;;;;;;;;;10.50;9.75;;;;;26.44;53.09;100766.78;146621;595;46010;-74
2022/06/14 05:37:17;;;;;;;;;13.75;12.75;;;;;26.76;52.62;100768.13;146615;689;46016;-74
2022/06/14 05:40:45;;;;;;;;;14.00;13.00;;;;;27.08;51.64;100778.31;146620;648;45021;-73
2022/06/14 05:44:09;;;;;;;;;15.50;11.50;;;;;27.37;51.37;100780.50;146613;570;46016;-73
2022/06/14 05:47:11;;;;;;;;;14.00;14.00;;;;;27.61;50.33;100777.41;146620;564;46011;-69
2022/06/14 05:50:12;;;;;;;;;15.75;15.00;;;;;27.79;50.58;100775.38;146616;565;46012;-71
2022/06/14 05:53:30;;;;;;;;;16.25;13.75;;;;;27.99;49.84;100786.50;146620;625;46010;-75
2022/06/14 05:56:37;;;;;;;;;10.75;9.25;;;;;28.20;49.53;100785.19;146611;566;47913;-78
2022/06/14 05:59:53;;;;;;;;;13.00;12.00;;;;;28.40;48.97;100783.91;146620;563;46010;-78
2022/06/14 06:03:17;;;;;;;;;9.25;7.00;;;;;28.51;48.73;100782.78;146607;599;47014;-80
2022/06/14 06:06:26;;;;;;;;;16.00;13.75;;;;;28.61;48.61;100788.81;146621;605;46010;-80
2022/06/14 06:09:38;;;;;;;;;18.00;14.00;;;;;28.71;48.44;100794.81;146613;569;46017;-77
2022/06/14 06:12:37;;;;;;;;;14.25;10.75;;;;;28.78;48.67;100791.97;146620;625;45020;-77
2022/06/14 06:15:42;;;;;;;;;12.50;10.75;;;;;28.91;47.67;100794.34;146616;665;46016;-76
2022/06/14 06:19:05;;;;;;;;;10.25;9.50;;;;;28.95;47.72;100788.91;146619;701;46010;-76
2022/06/14 06:22:08;;;;;;;;;11.25;10.25;;;;;29.00;47.30;100794.13;146616;640;46016;-82
2022/06/14 06:25:05;;;;;;;;;12.00;10.50;;;;;29.08;47.80;100797.53;146619;602;46010;-82
2022/06/14 06:28:16;;;;;;;;;11.25;11.00;;;;;29.19;46.60;100789.25;146617;582;46014;-81
2022/06/14 06:31:18;;;;;;;;;10.50;10.00;;;;;29.24;46.79;100790.88;146618;580;46010;-78
2022/06/14 06:34:14;;;;;;;;;11.50;11.50;;;;;29.27;47.51;100784.59;146617;597;46016;-77
2022/06/14 06:37:37;;;;;;;;;14.75;11.00;;;;;29.32;47.52;100790.72;146619;576;46015;-77
2022/06/14 06:40:30;;;;;;;;;9.75;9.00;;;;;29.26;47.63;100784.66;146617;637;46012;-77
2022/06/14 06:43:23;;;;;;;;;11.75;11.00;;;;;29.17;48.03;100796.44;146623;619;46014;-79
2022/06/14 06:46:23;;;;;;;;;11.75;11.75;;;;;29.09;48.55;100795.72;146618;600;46016;-72
2022/06/14 06:49:22;;;;;;;;;13.00;12.00;;;;;29.06;48.36;100803.81;146620;653;45037;-78
2022/06/14 06:52:22;;;;;;;;;8.75;8.75;;;;;29.06;47.71;100803.81;146615;572;46017;-74
2022/06/14 06:55:27;;;;;;;;;13.75;13.50;;;;;29.08;47.55;100800.19;146618;564;46020;-83
2022/06/14 06:58:48;;;;;;;;;7.25;7.25;;;;;29.15;47.00;100806.25;146617;595;46012;-80
2022/06/14 07:01:45;;;;;;;;;9.75;9.75;;;;;29.20;46.59;100802.56;146620;582;46020;-80
2022/06/14 07:08:12;;;;;;;;;13.00;10.50;;;;;29.44;47.31;100810.91;146631;712;45021;-72
2022/06/14 07:11:10;;;;;;;;;10.00;8.00;;;;;29.62;44.83;100812.22;146633;588;45915;-72
2022/06/14 07:14:16;;;;;;;;;12.50;11.50;;;;;29.80;44.70;100811.75;146635;580;45010;-70
2022/06/14 07:17:23;;;;;;;;;11.75;11.25;;;;;30.03;44.69;100808.47;146633;583;45016;-72
2022/06/14 07:20:48;;;;;;;;;9.25;8.50;;;;;30.23;44.71;100804.38;146634;591;45030;-72
2022/06/14 07:24:11;;;;;;;;;10.50;10.50;;;;;30.45;44.37;100800.13;146635;597;45017;-73
2022/06/14 07:27:16;;;;;;;;;12.00;11.00;;;;;30.58;43.43;100814.03;146634;697;45020;-72
2022/06/14 07:30:29;;;;;;;;;12.25;11.00;;;;;30.62;42.86;100815.66;146632;678;45915;-73
2022/06/14 07:33:24;;;;;;;;;12.25;10.75;;;;;30.66;43.45;100817.34;146635;653;45020;-73
2022/06/14 07:36:40;;;;;;;;;12.75;11.75;;;;;30.72;42.63;100814.50;146631;626;46915;-73
2022/06/14 07:39:50;;;;;;;;;12.50;11.00;;;;;30.79;44.37;100818.75;146637;575;45010;-72
2022/06/14 07:43:11;;;;;;;;;9.25;9.25;;;;;30.79;43.39;100815.19;146631;564;45915;-73
2022/06/14 07:46:11;;;;;;;;;10.00;9.75;;;;;30.78;42.67;100808.97;146635;684;45021;-73
2022/06/14 07:49:18;;;;;;;;;10.75;9.75;;;;;30.83;43.51;100822.19;146633;621;45915;-72
2022/06/14 07:52:21;;;;;;;;;11.25;10.50;;;;;30.92;43.34;100821.03;146635;637;45011;-72
2022/06/14 07:55:40;;;;;;;;;11.25;9.75;;;;;31.09;43.29;100812.47;146633;715;45916;-73
2022/06/14 07:58:55;;;;;;;;;11.00;11.00;;;;;31.26;43.21;100820.84;146635;671;45020;-72
2022/06/14 08:02:07;;;;;;;;;12.50;9.00;;;;;31.40;43.80;100823.97;146632;606;45914;-72
2022/06/14 08:05:17;;;;;;;;;12.75;9.75;;;;;31.45;43.04;100826.47;146634;596;45014;-85
2022/06/14 08:08:14;;;;;;;;;9.00;9.00;;;;;31.38;41.95;100830.31;146632;618;46916;-82
2022/06/14 08:11:49;;;;;;;;;12.25;12.25;;;;;31.33;43.87;100830.41;146637;657;45020;-83
2022/06/14 08:15:30;;;;;;;;;12.25;11.00;;;;;31.45;44.19;100824.69;146631;610;45914;-82
2022/06/14 08:18:56;;;;;;;;;7.75;7.25;;;;;31.58;42.08;100829.63;146636;577;45020;-81
2022/06/14 08:22:05;;;;;;;;;11.25;11.25;;;;;31.55;42.35;100838.62;146631;604;45913;-82
2022/06/14 08:25:10;;;;;;;;;11.00;11.00;;;;;31.48;43.06;100839.78;146637;645;45010;-74
2022/06/14 08:28:22;;;;;;;;;12.00;11.25;;;;;31.35;42.93;100831.28;146633;705;45915;-73
2022/06/14 08:31:35;;;;;;;;;12.25;12.25;;;;;31.30;42.94;100836.75;146636;707;45010;-82
2022/06/14 08:34:36;;;;;;;;;11.25;10.25;;;;;31.42;43.21;100827.47;146630;631;45915;-84
2022/06/14 08:38:10;;;;;;;;;11.00;9.00;;;;;31.31;40.86;100797.47;146636;646;44023;-84
2022/06/14 08:41:57;;;;;;;;;9.00;7.50;;;;;31.63;40.79;100833.03;146633;618;45913;-84
2022/06/14 08:45:07;;;;;;;;;10.25;10.25;;;;;31.73;41.26;100838.00;146635;651;45011;-85
2022/06/14 08:48:11;;;;;;;;;8.75;7.75;;;;;31.97;40.58;100830.94;146635;621;45915;-83
2022/06/14 08:51:46;;;;;;;;;9.75;9.25;;;;;32.30;41.46;100827.06;146634;564;45020;-84
2022/06/14 08:55:37;;;;;;;;;11.00;10.50;;;;;31.69;40.72;100664.81;146628;602;46012;-82
2022/06/14 08:59:10;;;;;;;;;11.25;11.25;;;;;32.80;40.82;100821.59;146636;607;45020;-84
2022/06/14 09:02:32;;;;;;;;;13.00;12.00;;;;;31.96;41.46;100670.97;146628;571;45916;-82
2022/06/14 09:06:13;;;;;;;;;12.50;11.75;;;;;31.94;40.78;100688.91;146621;589;46010;-83
2022/06/14 09:09:47;;;;;;;;;12.75;10.50;;;;;32.49;41.89;100829.97;146618;617;46012;-83
2022/06/14 09:13:26;;;;;;;;;14.00;13.00;;;;;32.33;42.32;100827.81;146620;667;46020;-82
2022/06/14 09:17:01;;;;;;;;;10.75;10.00;;;;;32.20;41.23;100819.38;146617;569;46016;-82
2022/06/14 09:21:03;;;;;;;;;13.75;12.50;;;;;31.28;41.07;100668.97;146620;565;46010;-81
2022/06/14 09:24:25;;;;;;;;;54.75;44.25;;;;;32.06;42.45;100815.47;146620;570;46012;-80
2022/06/14 09:28:02;;;;;;;;;9.75;8.25;;;;;32.08;40.46;100822.50;146618;575;46020;-84
2022/06/14 09:31:55;;;;;;;;;11.00;11.00;;;;;31.27;39.68;100707.38;146619;598;46012;-83
2022/06/14 09:35:33;;;;;;;;;11.00;11.00;;;;;31.78;41.21;100818.19;146620;590;45020;-84
2022/06/14 09:39:21;;;;;;;;;11.00;10.50;;;;;31.56;40.74;100827.00;146616;605;46012;-83
2022/06/14 09:42:54;;;;;;;;;11.00;11.00;;;;;31.32;40.98;100825.12;146620;658;47008;-81
2022/06/14 09:46:37;;;;;;;;;11.00;11.00;;;;;30.49;40.94;100683.19;146617;572;46022;-76
2022/06/14 09:50:25;;;;;;;;;13.00;12.00;;;;;31.48;39.77;100827.25;146620;656;46010;-78
2022/06/14 09:53:53;;;;;;;;;12.50;12.50;;;;;31.58;39.75;100819.78;146617;596;46012;-80
2022/06/14 09:57:39;;;;;;;;;12.00;12.00;;;;;31.24;41.35;100767.28;146619;565;46010;-78
2022/06/14 10:01:04;;;;;;;;;10.75;9.25;;;;;31.63;40.27;100814.28;146617;608;45017;-78
2022/06/14 10:04:53;;;;;;;;;10.25;9.75;;;;;31.38;39.82;100749.94;146622;708;46010;-78
2022/06/14 10:08:03;;;;;;;;;13.25;12.25;;;;;31.61;39.67;100816.13;146617;574;46014;-80
2022/06/14 10:11:44;;;;;;;;;9.75;9.00;;;;;31.40;38.20;100821.28;146619;609;46020;-78
2022/06/14 10:14:56;;;;;;;;;14.25;14.00;;;;;31.44;41.09;100816.72;146617;574;46017;-79
2022/06/14 10:18:49;;;;;;;;;11.25;10.00;;;;;31.09;40.98;100705.34;146619;685;46020;-78
2022/06/14 10:22:28;;;;;;;;;14.50;14.00;;;;;31.74;39.38;100807.56;146614;615;46017;-80
2022/06/14 10:29:42;;;;;;;;;16.00;14.25;;;;;31.65;38.85;100799.87;146614;663;46017;-78
2022/06/14 10:33:20;;;;;;;;;18.25;16.50;;;;;30.67;37.82;100631.75;146619;573;46020;-80
2022/06/14 10:37:04;;;;;;;;;15.50;15.50;;;;;31.73;39.81;100791.56;146615;570;46013;-78
2022/06/14 10:40:24;;;;;;;;;16.50;15.00;;;;;31.86;36.74;100787.50;146620;599;46010;-81
2022/06/14 10:44:21;;;;;;;;;14.00;14.00;;;;;31.29;38.67;100671.56;146617;578;46012;-81
2022/06/14 10:47:42;;;;;;;;;16.00;14.00;;;;;32.14;39.19;100792.75;146616;569;46020;-80
2022/06/14 10:51:04;;;;;;;;;13.00;13.00;;;;;32.33;38.86;100787.56;146618;611;46013;-78
2022/06/14 10:54:11;;;;;;;;;15.25;14.25;;;;;32.44;37.94;100784.53;146618;588;46010;-78
2022/06/14 10:57:44;;;;;;;;;15.50;12.75;;;;;32.57;39.25;100782.25;146606;651;47913;-79
2022/06/14 11:01:12;;;;;;;;;14.25;14.25;;;;;32.74;39.27;100784.25;146615;581;46020;-78
2022/06/14 11:04:52;;;;;;;;;15.75;14.75;;;;;32.74;38.78;100776.19;146618;564;46016;-78
2022/06/14 11:08:24;;;;;;;;;14.75;13.00;;;;;32.74;39.76;100777.06;146622;575;46010;-77
2022/06/14 11:12:10;;;;;;;;;15.50;13.75;;;;;31.83;38.85;100618.69;146619;621;46033;-76
2022/06/14 11:15:28;;;;;;;;;13.75;13.50;;;;;32.60;38.61;100772.25;146622;665;46030;-79
2022/06/14 11:18:56;;;;;;;;;11.25;10.25;;;;;32.52;36.97;100774.34;146616;569;46024;-78
2022/06/14 11:22:23;;;;;;;;;11.25;11.25;;;;;32.28;36.12;100768.13;146622;624;46021;-78
2022/06/14 11:25:57;;;;;;;;;11.00;11.00;;;;;31.98;36.65;100762.09;146619;596;45911;-80
2022/06/14 11:29:11;;;;;;;;;11.00;10.00;;;;;31.91;38.96;100760.56;146622;599;46021;-79
2022/06/14 11:32:39;;;;;;;;;13.50;13.25;;;;;31.27;39.48;100625.22;146620;563;46012;-78
2022/06/14 11:36:00;;;;;;;;;11.50;11.50;;;;;32.17;40.16;100764.94;146620;632;46014;-78
2022/06/14 11:39:17;;;;;;;;;14.00;13.50;;;;;32.30;37.73;100754.63;146618;589;46016;-77
2022/06/14 11:42:56;;;;;;;;;12.50;12.50;;;;;31.51;39.32;100599.34;146618;616;46020;-77
2022/06/14 11:46:14;;;;;;;;;13.25;11.25;;;;;32.47;38.27;100754.03;146617;706;46016;-78
2022/06/14 11:49:37;;;;;;;;;11.75;10.50;;;;;32.37;38.01;100718.59;146622;589;46021;-77
2022/06/14 11:53:06;;;;;;;;;13.00;12.00;;;;;31.59;39.52;100585.69;146620;601;45018;-77
2022/06/14 11:56:04;;;;;;;;;10.75;9.75;;;;;32.53;37.66;100735.87;146621;713;46015;-77
2022/06/14 11:59:53;;;;;;;;;12.75;10.75;;;;;32.52;38.02;100731.41;146619;678;46012;-76
2022/06/14 12:03:10;;;;;;;;;11.00;11.00;;;;;31.82;38.79;100594.62;146621;584;47020;-77
2022/06/14 12:06:31;;;;;;;;;9.00;9.00;;;;;32.62;38.51;100724.75;146616;606;47014;-76
2022/06/14 12:09:55;;;;;;;;;11.50;10.50;;;;;32.66;38.21;100725.50;146620;569;46020;-74
2022/06/14 12:13:15;;;;;;;;;12.75;11.00;;;;;32.65;37.71;100729.13;146616;639;47014;-75
2022/06/14 12:16:48;;;;;;;;;12.75;11.50;;;;;31.64;38.58;100551.53;146618;657;46020;-72
2022/06/14 12:19:45;;;;;;;;;10.25;9.25;;;;;32.59;37.58;100707.91;146620;657;46020;-72
2022/06/14 12:23:19;;;;;;;;;13.75;11.25;;;;;32.34;38.24;100660.53;146622;636;46020;-74
2022/06/14 12:26:37;;;;;;;;;11.00;10.75;;;;;32.60;36.89;100697.09;146618;570;46915;-73
2022/06/14 12:29:39;;;;;;;;;16.00;13.50;;;;;32.58;35.87;100700.75;146620;631;45020;-74
2022/06/14 12:33:02;;;;;;;;;15.25;14.50;;;;;32.49;36.37;100693.09;146616;672;46012;-73
2022/06/14 12:36:09;;;;;;;;;15.00;14.25;;;;;32.38;35.94;100683.63;146620;601;46010;-76
2022/06/14 12:39:07;;;;;;;;;14.25;14.25;;;;;32.33;35.81;100684.75;146617;577;46017;-74
2022/06/14 12:42:43;;;;;;;;;15.25;12.75;;;;;31.35;38.76;100522.31;146618;594;46038;-75
2022/06/14 12:46:06;;;;;;;;;12.50;11.75;;;;;32.33;37.92;100693.66;146617;672;46016;-76
2022/06/14 12:49:29;;;;;;;;;11.75;11.00;;;;;32.34;37.89;100690.06;146616;608;46020;-76
2022/06/14 12:52:41;;;;;;;;;13.50;12.50;;;;;32.43;37.99;100696.84;146616;644;47012;-76
2022/06/14 12:55:52;;;;;;;;;14.75;14.75;;;;;32.45;37.35;100692.34;146616;585;47010;-79
2022/06/14 12:59:28;;;;;;;;;15.00;14.25;;;;;31.49;37.93;100536.91;146616;574;46016;-76
2022/06/14 13:02:50;;;;;;;;;12.25;12.25;;;;;32.36;38.67;100689.97;146609;570;47010;-77
2022/06/14 13:05:53;;;;;;;;;17.00;15.75;;;;;32.27;37.60;100684.97;146617;611;46014;-76
2022/06/14 13:09:06;;;;;;;;;14.25;14.00;;;;;32.19;39.40;100693.34;146619;660;46020;-77
2022/06/14 13:12:35;;;;;;;;;13.00;13.00;;;;;32.10;38.38;100696.38;146615;586;46016;-78
2022/06/14 13:15:53;;;;;;;;;14.50;13.00;;;;;32.00;40.06;100693.19;146615;571;46020;-78
2022/06/14 13:19:14;;;;;;;;;16.25;14.00;;;;;31.51;39.90;100644.91;146617;624;46028;-79
2022/06/14 13:22:46;;;;;;;;;17.75;17.00;;;;;31.57;41.15;100716.19;146617;617;46020;-78
2022/06/14 13:26:05;;;;;;;;;15.00;15.00;;;;;31.31;42.38;100717.09;146615;613;46016;-74
2022/06/14 13:29:41;;;;;;;;;14.75;14.75;;;;;31.07;42.61;100721.47;146618;569;46020;-77
2022/06/14 13:33:09;;;;;;;;;17.50;16.50;;;;;30.85;42.52;100734.69;146616;608;46013;-75
2022/06/14 13:36:41;;;;;;;;;16.25;16.00;;;;;30.65;43.80;100727.25;146618;563;46020;-77
2022/06/14 13:40:25;;;;;;;;;15.00;15.00;;;;;29.01;45.83;100496.97;146621;604;46012;-75
2022/06/14 13:43:41;;;;;;;;;14.75;14.75;;;;;30.23;44.79;100749.06;146618;575;45020;-75
2022/06/14 13:47:01;;;;;;;;;15.50;14.00;;;;;28.97;42.94;100567.31;146615;599;46017;-74
2022/06/14 13:50:36;;;;;;;;;14.25;13.50;;;;;29.12;42.72;100635.47;146616;587;46020;-76
2022/06/14 13:54:03;;;;;;;;;12.50;12.50;;;;;28.62;43.00;100566.44;146614;560;46913;-76
2022/06/14 13:57:33;;;;;;;;;13.00;13.00;;;;;29.68;41.44;100754.16;146617;578;46010;-76
2022/06/14 14:01:02;;;;;;;;;12.25;11.00;;;;;29.68;41.88;100756.81;146616;705;46012;-75
2022/06/14 14:04:46;;;;;;;;;10.00;9.00;;;;;29.69;41.90;100755.94;146619;652;46021;-75
2022/06/14 14:08:14;;;;;;;;;12.33;10.00;;;;;29.76;41.71;100758.44;146620;601;45018;-76
2022/06/14 14:11:52;;;;;;;;;7.50;7.50;;;;;29.82;41.26;100761.81;146620;674;46010;-75
2022/06/14 14:15:15;;;;;;;;;9.50;8.50;;;;;29.86;40.86;100750.09;146618;565;46012;-76
2022/06/14 14:18:54;;;;;;;;;9.25;9.25;;;;;29.09;40.91;100615.06;146622;710;46010;-77
2022/06/14 14:21:57;;;;;;;;;8.00;7.00;;;;;29.87;40.41;100742.94;146617;641;47012;-73
2022/06/14 14:25:36;;;;;;;;;11.75;10.50;;;;;29.85;40.92;100751.03;146620;590;46021;-74
2022/06/14 14:28:59;;;;;;;;;12.67;10.00;;;;;29.11;40.19;100607.88;146616;671;46016;-75
2022/06/14 14:32:15;;;;;;;;;12.25;10.00;;;;;29.02;39.96;100561.88;146622;574;45022;-74
2022/06/14 14:35:28;;;;;;;;;9.00;8.75;;;;;30.17;40.03;100724.28;146619;624;47012;-72
2022/06/14 14:38:35;;;;;;;;;10.25;10.00;;;;;30.38;39.93;100735.25;146622;582;46010;-72
2022/06/14 14:41:41;;;;;;;;;9.50;8.25;;;;;30.66;39.74;100736.19;146617;708;46017;-72
2022/06/14 14:44:55;;;;;;;;;9.00;8.75;;;;;30.93;39.51;100734.44;146623;603;46010;-71
2022/06/14 14:48:24;;;;;;;;;11.75;10.00;;;;;31.17;38.40;100730.06;146618;599;47016;-79
2022/06/14 14:51:45;;;;;;;;;12.50;10.50;;;;;31.33;38.82;100730.41;146620;569;46020;-77
2022/06/14 14:55:09;;;;;;;;;10.25;9.50;;;;;31.52;38.87;100726.19;146617;606;46013;-79
2022/06/14 14:58:31;;;;;;;;;12.00;12.00;;;;;31.70;38.27;100733.56;146622;566;46010;-78
2022/06/14 15:06:03;;;;;;;;;10.75;10.50;;;;;32.03;38.21;100725.25;146638;626;45014;-77
2022/06/14 15:09:08;;;;;;;;;13.75;12.00;;;;;32.01;37.74;100727.09;146633;628;45913;-76
2022/06/14 15:12:04;;;;;;;;;11.50;10.50;;;;;31.98;36.77;100724.53;146634;678;46010;-77
2022/06/14 15:15:08;;;;;;;;;11.00;11.00;;;;;31.92;37.68;100720.28;146632;676;45913;-77
2022/06/14 15:21:38;;;;;;;;;9.50;9.50;;;;;31.86;37.36;100723.16;146632;616;45016;-76